Time;durP1;ratioP1;P1;durP2;ratioP2;P2;SDS_P1;SDS_P2;PMS_P1;PMS_P2;Temp;Humidity;BMP_temperature;BMP_pressure;BME280_temperature;BME280_humidity;BME280_pressure;Samples;Min_cycle;Max_cycle;Signal;HPM_P1;HPM_P2
2021/09/24 00:00:29;;;;;;;8.85;4.47;;;;;;;;;;4988707;28;20058;-66
2021/09/24 00:02:58;;;;;;;10.13;3.85;;;;;;;;;;4989390;28;20073;-68
2021/09/24 00:05:27;;;;;;;7.43;4.32;;;;;;;;;;4992789;28;20057;-66
2021/09/24 00:07:55;;;;;;;8.48;4.63;;;;;;;;;;4994338;28;20062;-64
2021/09/24 00:10:24;;;;;;;8.93;4.13;;;;;;;;;;4993042;28;20197;-65
2021/09/24 00:12:52;;;;;;;9.45;4.20;;;;;;;;;;4993338;28;20452;-64
2021/09/24 00:15:20;;;;;;;9.88;4.70;;;;;;;;;;4993247;28;20066;-65
2021/09/24 00:17:50;;;;;;;8.55;4.55;;;;;;;;;;4993805;28;20081;-65
2021/09/24 00:20:18;;;;;;;8.18;4.82;;;;;;;;;;4993474;28;20133;-70
2021/09/24 00:22:46;;;;;;;10.38;5.40;;;;;;;;;;4993911;28;20156;-66
2021/09/24 00:25:15;;;;;;;10.57;4.70;;;;;;;;;;4993344;28;20213;-65
2021/09/24 00:27:43;;;;;;;9.98;5.18;;;;;;;;;;4993609;28;20085;-64
2021/09/24 00:30:12;;;;;;;9.27;4.82;;;;;;;;;;4993337;28;20058;-64
2021/09/24 00:32:40;;;;;;;11.20;4.50;;;;;;;;;;4993371;28;20100;-65
2021/09/24 00:35:10;;;;;;;9.80;4.60;;;;;;;;;;4992753;28;20464;-68
2021/09/24 00:37:39;;;;;;;12.45;4.53;;;;;;;;;;4993831;28;20093;-65
2021/09/24 00:40:08;;;;;;;8.00;4.30;;;;;;;;;;4992947;28;20054;-65
2021/09/24 00:42:37;;;;;;;7.05;4.18;;;;;;;;;;4993080;28;20054;-65
2021/09/24 00:45:06;;;;;;;9.00;5.00;;;;;;;;;;4991691;28;20050;-66
2021/09/24 00:47:34;;;;;;;13.80;5.05;;;;;;;;;;4992346;28;20093;-68
2021/09/24 00:50:02;;;;;;;9.95;4.13;;;;;;;;;;4992294;28;20100;-65
2021/09/24 00:52:32;;;;;;;10.15;4.93;;;;;;;;;;4991945;28;20112;-67
2021/09/24 00:55:00;;;;;;;9.43;4.22;;;;;;;;;;4991004;28;20465;-64
2021/09/24 00:57:29;;;;;;;10.40;4.45;;;;;;;;;;4991295;28;20116;-64
2021/09/24 00:59:57;;;;;;;7.88;4.30;;;;;;;;;;4992427;28;20081;-65
2021/09/24 01:02:26;;;;;;;8.95;3.78;;;;;;;;;;4992243;28;20097;-65
2021/09/24 01:04:55;;;;;;;8.15;4.45;;;;;;;;;;4991675;28;20054;-64
2021/09/24 01:07:23;;;;;;;11.10;4.20;;;;;;;;;;4993173;28;20096;-64
2021/09/24 01:09:53;;;;;;;8.80;4.50;;;;;;;;;;4992390;28;20074;-65
2021/09/24 01:12:22;;;;;;;8.40;4.35;;;;;;;;;;4991404;28;20101;-64
2021/09/24 01:14:58;;;;;;;7.65;4.68;;;;;;;;;;4991203;28;20050;-65
2021/09/24 01:17:26;;;;;;;8.05;4.18;;;;;;;;;;4992181;28;20399;-65
2021/09/24 01:19:54;;;;;;;7.13;4.03;;;;;;;;;;4992007;28;20077;-64
2021/09/24 01:22:24;;;;;;;9.70;4.25;;;;;;;;;;4990936;28;20171;-65
2021/09/24 01:24:52;;;;;;;7.20;3.58;;;;;;;;;;4991501;28;20090;-65
2021/09/24 01:27:21;;;;;;;9.00;4.22;;;;;;;;;;4991895;28;20046;-65
2021/09/24 01:29:51;;;;;;;9.05;4.20;;;;;;;;;;4991931;28;20117;-67
2021/09/24 01:32:19;;;;;;;10.20;4.80;;;;;;;;;;4991758;28;20145;-67
2021/09/24 01:34:48;;;;;;;7.45;3.92;;;;;;;;;;4991900;28;20058;-66
2021/09/24 01:37:17;;;;;;;7.57;4.22;;;;;;;;;;4991496;28;20057;-65
2021/09/24 01:39:47;;;;;;;10.40;4.70;;;;;;;;;;4991976;28;20085;-65
2021/09/24 01:42:15;;;;;;;10.90;4.60;;;;;;;;;;4991162;28;20050;-65
2021/09/24 01:44:43;;;;;;;8.38;4.25;;;;;;;;;;4973914;28;20097;-64
2021/09/24 01:47:12;;;;;;;7.85;3.67;;;;;;;;;;4983832;28;20054;-65
2021/09/24 01:49:40;;;;;;;10.05;4.47;;;;;;;;;;4990694;28;20097;-64
2021/09/24 01:52:08;;;;;;;10.13;4.20;;;;;;;;;;4991117;28;20142;-65
2021/09/24 01:54:37;;;;;;;8.75;4.15;;;;;;;;;;4990726;28;20043;-66
2021/09/24 01:57:07;;;;;;;8.93;4.40;;;;;;;;;;4991299;28;20073;-65
2021/09/24 01:59:35;;;;;;;6.53;3.75;;;;;;;;;;4991184;28;20085;-65
2021/09/24 02:02:04;;;;;;;7.75;4.07;;;;;;;;;;4993244;28;20050;-67
2021/09/24 02:04:32;;;;;;;6.55;3.80;;;;;;;;;;4990515;28;20050;-66
2021/09/24 02:07:01;;;;;;;6.75;3.95;;;;;;;;;;4991376;28;20093;-64
2021/09/24 02:09:29;;;;;;;7.85;3.72;;;;;;;;;;4991649;28;20498;-65
2021/09/24 02:11:57;;;;;;;9.05;4.05;;;;;;;;;;4990072;28;20054;-65
2021/09/24 02:14:27;;;;;;;7.95;4.05;;;;;;;;;;4990718;28;20560;-64
2021/09/24 02:16:55;;;;;;;7.95;3.92;;;;;;;;;;4991036;28;20557;-64
2021/09/24 02:19:24;;;;;;;6.93;4.13;;;;;;;;;;4991140;28;20083;-64
2021/09/24 02:21:52;;;;;;;9.93;4.55;;;;;;;;;;4989585;28;20101;-64
2021/09/24 02:24:20;;;;;;;8.38;4.25;;;;;;;;;;4990082;28;20073;-66
2021/09/24 02:26:49;;;;;;;10.20;4.70;;;;;;;;;;4990268;28;20128;-65
2021/09/24 02:29:17;;;;;;;9.52;4.20;;;;;;;;;;4990816;28;20498;-64
2021/09/24 02:31:46;;;;;;;8.80;4.82;;;;;;;;;;4989883;28;20454;-66
2021/09/24 02:34:15;;;;;;;9.00;4.75;;;;;;;;;;4990701;28;20430;-65
2021/09/24 02:36:43;;;;;;;9.57;4.28;;;;;;;;;;4990646;28;20057;-64
2021/09/24 02:39:12;;;;;;;7.30;4.00;;;;;;;;;;4990551;28;20042;-67
2021/09/24 02:41:40;;;;;;;9.85;4.68;;;;;;;;;;4986036;28;20473;-64
2021/09/24 02:44:08;;;;;;;8.88;4.22;;;;;;;;;;4990490;28;20046;-66
2021/09/24 02:46:36;;;;;;;8.65;3.58;;;;;;;;;;4990689;28;20043;-65
2021/09/24 02:49:06;;;;;;;8.90;4.40;;;;;;;;;;4990216;28;20042;-66
2021/09/24 02:51:35;;;;;;;10.15;5.20;;;;;;;;;;4989936;28;20050;-68
2021/09/24 02:54:03;;;;;;;10.23;4.28;;;;;;;;;;4990439;28;20046;-66
2021/09/24 02:56:32;;;;;;;10.82;4.70;;;;;;;;;;4989990;28;20086;-64
2021/09/24 02:59:00;;;;;;;11.80;4.65;;;;;;;;;;4990063;28;20055;-67
2021/09/24 03:01:28;;;;;;;11.50;4.93;;;;;;;;;;4989697;28;20105;-64
2021/09/24 03:03:57;;;;;;;8.85;4.22;;;;;;;;;;4989401;28;20129;-65
2021/09/24 03:06:27;;;;;;;10.60;4.45;;;;;;;;;;4991052;28;20046;-64
2021/09/24 03:08:55;;;;;;;11.00;4.60;;;;;;;;;;4989804;28;20062;-64
2021/09/24 03:11:24;;;;;;;8.27;4.47;;;;;;;;;;4989729;28;20533;-64
2021/09/24 03:13:53;;;;;;;8.50;4.40;;;;;;;;;;4989371;28;20138;-64
2021/09/24 03:16:21;;;;;;;7.60;3.80;;;;;;;;;;4991045;28;20529;-64
2021/09/24 03:18:49;;;;;;;9.65;4.95;;;;;;;;;;4989635;28;20084;-65
2021/09/24 03:21:18;;;;;;;7.15;4.03;;;;;;;;;;4990263;28;20046;-66
2021/09/24 03:23:48;;;;;;;8.73;4.20;;;;;;;;;;4989274;28;20097;-65
2021/09/24 03:26:18;;;;;;;9.63;4.30;;;;;;;;;;4987604;28;20463;-66
2021/09/24 03:28:46;;;;;;;7.63;4.18;;;;;;;;;;4984686;28;20125;-66
2021/09/24 03:31:15;;;;;;;7.88;4.47;;;;;;;;;;4984066;28;20467;-65
2021/09/24 03:33:43;;;;;;;8.27;4.28;;;;;;;;;;4984587;28;20133;-65
2021/09/24 03:36:20;;;;;;;8.50;3.80;;;;;;;;;;3290435;28;10021465;-64
2021/09/24 03:38:49;;;;;;;7.28;4.15;;;;;;;;;;2237375;28;10002036;-65
2021/09/24 03:41:18;;;;;;;8.50;4.13;;;;;;;;;;4993723;28;20053;-66
2021/09/24 03:43:46;;;;;;;7.78;4.15;;;;;;;;;;4993631;28;20042;-64
2021/09/24 03:46:14;;;;;;;8.43;3.92;;;;;;;;;;4991742;28;20457;-64
2021/09/24 03:48:43;;;;;;;8.88;4.05;;;;;;;;;;4993178;28;20061;-64
2021/09/24 03:51:11;;;;;;;10.45;4.38;;;;;;;;;;4994064;28;20050;-64
2021/09/24 03:53:39;;;;;;;12.25;4.75;;;;;;;;;;4983542;28;20586;-64
2021/09/24 03:56:09;;;;;;;6.43;4.10;;;;;;;;;;4990741;28;20131;-64
2021/09/24 03:58:37;;;;;;;7.25;3.70;;;;;;;;;;4993888;28;20078;-65
2021/09/24 04:01:06;;;;;;;8.80;4.38;;;;;;;;;;4992852;28;20518;-65
2021/09/24 04:03:35;;;;;;;9.25;4.40;;;;;;;;;;5001066;28;20108;-66
2021/09/24 04:06:04;;;;;;;10.20;4.40;;;;;;;;;;4993142;28;20069;-67
2021/09/24 04:08:32;;;;;;;8.55;4.53;;;;;;;;;;4994216;28;20053;-64
2021/09/24 04:11:00;;;;;;;7.15;4.15;;;;;;;;;;4993685;28;20085;-65
2021/09/24 04:13:30;;;;;;;11.88;4.60;;;;;;;;;;4992886;28;20046;-65
2021/09/24 04:15:59;;;;;;;8.18;4.35;;;;;;;;;;4991833;28;20069;-65
2021/09/24 04:18:27;;;;;;;9.95;4.55;;;;;;;;;;4993155;28;20150;-64
2021/09/24 04:20:55;;;;;;;6.63;3.92;;;;;;;;;;4993497;28;20051;-64
2021/09/24 04:23:25;;;;;;;10.30;4.60;;;;;;;;;;4991873;28;20046;-64
2021/09/24 04:25:53;;;;;;;9.23;4.72;;;;;;;;;;4991476;28;20077;-64
2021/09/24 04:28:21;;;;;;;9.25;4.68;;;;;;;;;;4993752;28;20105;-65
2021/09/24 04:30:51;;;;;;;8.52;4.57;;;;;;;;;;4991966;28;20054;-64
2021/09/24 04:33:19;;;;;;;6.95;3.70;;;;;;;;;;4983782;28;20058;-64
2021/09/24 04:35:48;;;;;;;7.22;4.25;;;;;;;;;;4992258;28;20617;-68
2021/09/24 04:38:16;;;;;;;9.95;5.00;;;;;;;;;;4992297;28;20137;-66
2021/09/24 04:40:44;;;;;;;9.27;4.18;;;;;;;;;;4985345;28;20049;-64
2021/09/24 04:43:13;;;;;;;6.28;3.70;;;;;;;;;;4977800;28;20057;-67
2021/09/24 04:45:41;;;;;;;8.13;3.78;;;;;;;;;;4981306;28;20622;-64
2021/09/24 04:48:10;;;;;;;8.13;4.32;;;;;;;;;;4975018;28;20096;-64
2021/09/24 04:50:39;;;;;;;8.30;4.15;;;;;;;;;;4986669;28;20046;-65
2021/09/24 04:53:07;;;;;;;9.52;4.50;;;;;;;;;;4974568;28;20051;-65
2021/09/24 04:55:36;;;;;;;8.55;4.63;;;;;;;;;;4990731;28;21810;-64
2021/09/24 04:58:04;;;;;;;9.93;4.55;;;;;;;;;;4992959;28;20128;-68
2021/09/24 05:00:32;;;;;;;8.15;4.20;;;;;;;;;;4992333;28;20601;-64
2021/09/24 05:03:01;;;;;;;7.65;4.18;;;;;;;;;;4989686;28;20050;-65
2021/09/24 05:05:30;;;;;;;10.02;4.55;;;;;;;;;;4990694;28;20491;-64
2021/09/24 05:07:59;;;;;;;9.40;4.78;;;;;;;;;;4990537;28;20561;-65
2021/09/24 05:10:27;;;;;;;7.38;5.10;;;;;;;;;;4991856;28;20133;-64
2021/09/24 05:12:55;;;;;;;10.50;5.20;;;;;;;;;;4991642;28;20050;-64
2021/09/24 05:15:24;;;;;;;8.93;4.85;;;;;;;;;;4990164;28;20089;-66
2021/09/24 05:17:52;;;;;;;9.85;4.50;;;;;;;;;;4979935;28;20129;-65
2021/09/24 05:20:20;;;;;;;10.73;4.30;;;;;;;;;;4992149;28;20351;-64
2021/09/24 05:22:50;;;;;;;7.95;4.18;;;;;;;;;;4991813;28;20562;-65
2021/09/24 05:25:19;;;;;;;8.88;4.55;;;;;;;;;;4992417;28;20145;-65
2021/09/24 05:27:47;;;;;;;10.40;4.32;;;;;;;;;;4992194;28;20065;-64
2021/09/24 05:30:15;;;;;;;9.35;4.15;;;;;;;;;;4992238;28;20142;-65
2021/09/24 05:32:44;;;;;;;13.40;5.10;;;;;;;;;;4977125;28;20146;-65
2021/09/24 05:35:14;;;;;;;8.95;4.82;;;;;;;;;;4991319;28;20082;-66
2021/09/24 05:37:43;;;;;;;10.23;4.38;;;;;;;;;;4991156;28;20054;-64
2021/09/24 05:40:13;;;;;;;8.90;4.72;;;;;;;;;;4991630;28;20080;-64
2021/09/24 05:42:42;;;;;;;10.50;5.25;;;;;;;;;;4989955;28;20049;-65
2021/09/24 05:45:14;;;;;;;10.77;5.20;;;;;;;;;;4990886;28;20487;-64
2021/09/24 05:47:43;;;;;;;10.05;5.07;;;;;;;;;;4990020;28;20118;-67
2021/09/24 05:50:12;;;;;;;11.15;4.93;;;;;;;;;;4988240;28;20133;-65
2021/09/24 05:52:43;;;;;;;16.20;5.50;;;;;;;;;;4986945;28;20498;-64
2021/09/24 05:55:13;;;;;;;10.07;4.32;;;;;;;;;;4990600;28;20042;-64
2021/09/24 05:57:42;;;;;;;9.25;4.53;;;;;;;;;;4991572;28;20042;-64
2021/09/24 06:00:11;;;;;;;14.55;5.43;;;;;;;;;;4992471;28;20056;-66
2021/09/24 06:02:40;;;;;;;14.13;4.72;;;;;;;;;;4989684;28;20461;-67
2021/09/24 06:05:09;;;;;;;9.98;5.22;;;;;;;;;;5010799;28;20365;-66
2021/09/24 06:07:37;;;;;;;10.63;4.90;;;;;;;;;;4993656;28;20073;-64
2021/09/24 06:10:06;;;;;;;11.75;5.18;;;;;;;;;;4991611;28;20051;-66
2021/09/24 06:12:36;;;;;;;8.98;4.93;;;;;;;;;;4992280;28;20140;-68
2021/09/24 06:15:05;;;;;;;10.48;4.85;;;;;;;;;;4990984;28;20130;-69
2021/09/24 06:17:33;;;;;;;10.45;4.88;;;;;;;;;;4991771;28;20046;-64
2021/09/24 06:20:02;;;;;;;11.20;5.20;;;;;;;;;;4991321;28;20410;-65
2021/09/24 06:22:30;;;;;;;14.77;5.70;;;;;;;;;;4986470;28;20133;-64
2021/09/24 06:24:59;;;;;;;9.32;4.75;;;;;;;;;;4990357;28;20061;-64
2021/09/24 06:27:28;;;;;;;13.52;5.07;;;;;;;;;;4991623;28;20052;-66
2021/09/24 06:29:58;;;;;;;13.70;5.93;;;;;;;;;;4990817;28;20566;-64
2021/09/24 06:32:27;;;;;;;15.25;5.72;;;;;;;;;;4988035;28;20125;-65
2021/09/24 06:34:55;;;;;;;10.63;5.07;;;;;;;;;;4990592;28;20057;-67
2021/09/24 06:37:24;;;;;;;9.70;5.25;;;;;;;;;;4991558;28;20054;-65
2021/09/24 06:39:52;;;;;;;9.20;4.90;;;;;;;;;;4988401;28;20057;-64
2021/09/24 06:42:20;;;;;;;9.02;4.68;;;;;;;;;;4989651;28;20134;-64
2021/09/24 06:44:49;;;;;;;10.95;4.93;;;;;;;;;;4989249;28;20054;-65
2021/09/24 06:47:19;;;;;;;12.23;5.25;;;;;;;;;;4991544;28;20348;-64
2021/09/24 06:49:48;;;;;;;13.50;4.72;;;;;;;;;;4991372;28;20050;-65
2021/09/24 06:52:16;;;;;;;10.82;5.28;;;;;;;;;;4989513;28;20104;-66
2021/09/24 06:54:45;;;;;;;12.02;5.18;;;;;;;;;;4988498;28;20097;-66
2021/09/24 06:57:13;;;;;;;13.27;5.38;;;;;;;;;;4991197;28;20113;-64
2021/09/24 06:59:42;;;;;;;11.60;4.95;;;;;;;;;;4991097;28;20082;-66
2021/09/24 07:02:10;;;;;;;10.38;5.20;;;;;;;;;;4990839;28;20128;-65
2021/09/24 07:04:41;;;;;;;11.35;5.10;;;;;;;;;;4990391;28;20500;-65
2021/09/24 07:07:10;;;;;;;10.40;5.40;;;;;;;;;;4990347;28;20446;-66
2021/09/24 07:09:38;;;;;;;8.90;4.70;;;;;;;;;;4990637;28;20081;-67
2021/09/24 07:12:07;;;;;;;9.90;4.90;;;;;;;;;;4990018;28;20112;-66
2021/09/24 07:14:35;;;;;;;9.40;5.15;;;;;;;;;;4986828;28;20429;-67
2021/09/24 07:17:05;;;;;;;8.30;4.43;;;;;;;;;;4990810;28;20050;-64
2021/09/24 07:19:34;;;;;;;12.45;4.80;;;;;;;;;;4990895;28;20054;-64
2021/09/24 07:22:04;;;;;;;10.63;5.07;;;;;;;;;;4990274;28;20046;-64
2021/09/24 07:24:33;;;;;;;6.55;4.00;;;;;;;;;;4990646;28;20124;-65
2021/09/24 07:27:01;;;;;;;9.80;5.13;;;;;;;;;;4989740;28;20047;-65
2021/09/24 07:29:30;;;;;;;9.63;4.88;;;;;;;;;;4990239;28;20105;-65
2021/09/24 07:31:58;;;;;;;11.23;5.70;;;;;;;;;;4980807;28;20054;-67
2021/09/24 07:34:27;;;;;;;13.40;3.97;;;;;;;;;;4988209;28;20046;-65
2021/09/24 07:36:55;;;;;;;9.90;4.78;;;;;;;;;;4990337;28;20046;-64
2021/09/24 07:39:25;;;;;;;9.32;3.95;;;;;;;;;;4990111;28;20553;-64
2021/09/24 07:41:54;;;;;;;11.10;4.35;;;;;;;;;;4989458;28;20054;-65
2021/09/24 07:44:23;;;;;;;9.85;4.18;;;;;;;;;;4989072;28;20043;-65
2021/09/24 07:46:51;;;;;;;9.75;5.15;;;;;;;;;;4989262;28;20053;-65
2021/09/24 07:49:20;;;;;;;11.55;4.38;;;;;;;;;;4986096;28;20054;-65
2021/09/24 07:51:51;;;;;;;8.10;4.30;;;;;;;;;;4990556;28;20042;-65
2021/09/24 07:54:21;;;;;;;8.48;4.05;;;;;;;;;;4987016;28;20056;-64
2021/09/24 07:56:51;;;;;;;11.07;4.18;;;;;;;;;;4989942;28;20046;-65
2021/09/24 07:59:20;;;;;;;8.00;4.53;;;;;;;;;;4989837;28;20513;-65
2021/09/24 08:01:48;;;;;;;7.50;3.38;;;;;;;;;;4989974;28;20430;-67
2021/09/24 08:04:17;;;;;;;9.23;4.97;;;;;;;;;;4986556;28;20050;-68
2021/09/24 08:06:49;;;;;;;8.40;4.22;;;;;;;;;;4988594;28;20050;-65
2021/09/24 08:09:17;;;;;;;13.10;4.85;;;;;;;;;;4987209;28;20112;-67
2021/09/24 08:11:46;;;;;;;8.77;4.20;;;;;;;;;;4989441;28;20149;-64
2021/09/24 08:14:16;;;;;;;7.05;4.13;;;;;;;;;;4988704;28;20486;-66
2021/09/24 08:16:44;;;;;;;9.82;4.32;;;;;;;;;;4989829;28;20046;-67
2021/09/24 08:19:12;;;;;;;8.20;3.63;;;;;;;;;;4987270;28;20058;-65
2021/09/24 08:21:41;;;;;;;9.30;4.18;;;;;;;;;;4971203;28;20047;-64
2021/09/24 08:24:09;;;;;;;8.55;4.22;;;;;;;;;;4988531;28;20050;-65
2021/09/24 08:26:38;;;;;;;9.30;3.83;;;;;;;;;;4993430;28;20054;-69
2021/09/24 08:29:06;;;;;;;7.32;4.18;;;;;;;;;;4993096;28;20054;-65
2021/09/24 08:31:36;;;;;;;9.82;4.40;;;;;;;;;;4993695;28;20149;-66
2021/09/24 08:34:06;;;;;;;8.63;3.70;;;;;;;;;;4992726;28;20137;-66
2021/09/24 08:36:34;;;;;;;4.68;3.30;;;;;;;;;;4989850;28;20117;-64
2021/09/24 08:39:03;;;;;;;5.60;3.10;;;;;;;;;;4993243;28;20062;-65
2021/09/24 08:41:31;;;;;;;8.60;4.05;;;;;;;;;;4993738;28;20493;-66
2021/09/24 08:44:00;;;;;;;6.22;3.50;;;;;;;;;;4991943;28;20050;-66
2021/09/24 08:46:32;;;;;;;9.52;3.70;;;;;;;;;;4992608;28;20062;-65
2021/09/24 08:49:02;;;;;;;11.05;3.25;;;;;;;;;;4990477;28;20066;-64
2021/09/24 08:51:31;;;;;;;6.18;3.83;;;;;;;;;;4988871;28;20051;-67
2021/09/24 08:54:00;;;;;;;6.85;3.42;;;;;;;;;;4991517;28;20057;-67
2021/09/24 08:56:28;;;;;;;6.10;3.45;;;;;;;;;;4992869;28;20065;-66
2021/09/24 08:58:57;;;;;;;5.82;3.30;;;;;;;;;;4992832;28;20065;-65
2021/09/24 09:01:25;;;;;;;7.88;3.70;;;;;;;;;;4992249;28;20261;-65
2021/09/24 09:03:55;;;;;;;7.25;3.58;;;;;;;;;;4991836;28;20129;-65
2021/09/24 09:06:30;;;;;;;6.43;3.88;;;;;;;;;;4988733;28;20057;-66
2021/09/24 09:09:05;;;;;;;7.55;3.58;;;;;;;;;;4990820;28;20050;-65
2021/09/24 09:11:34;;;;;;;6.57;3.78;;;;;;;;;;4993260;28;20450;-65
2021/09/24 09:14:02;;;;;;;7.10;3.80;;;;;;;;;;4991422;28;20487;-65
2021/09/24 09:16:33;;;;;;;7.63;3.58;;;;;;;;;;4992501;28;20453;-65
2021/09/24 09:19:06;;;;;;;10.13;3.35;;;;;;;;;;4991995;28;20054;-65
2021/09/24 09:21:38;;;;;;;6.85;3.88;;;;;;;;;;4990687;28;20137;-66
2021/09/24 09:24:15;;;;;;;8.60;3.63;;;;;;;;;;4988537;28;20050;-66
2021/09/24 09:26:43;;;;;;;5.60;3.30;;;;;;;;;;4992585;28;20566;-67
2021/09/24 09:29:12;;;;;;;4.63;3.20;;;;;;;;;;4989601;28;20100;-66
2021/09/24 09:32:05;;;;;;;7.82;3.58;;;;;;;;;;4993074;28;20546;-65
2021/09/24 09:34:35;;;;;;;7.00;3.65;;;;;;;;;;4989265;28;20092;-65
2021/09/24 09:37:16;;;;;;;7.40;4.03;;;;;;;;;;4988181;28;20047;-65
2021/09/24 09:39:45;;;;;;;6.10;3.63;;;;;;;;;;4990610;28;20133;-66
2021/09/24 09:42:15;;;;;;;7.10;3.70;;;;;;;;;;4992378;28;20077;-66
2021/09/24 09:44:44;;;;;;;5.95;3.17;;;;;;;;;;4991571;28;20077;-66
2021/09/24 09:47:27;;;;;;;5.97;3.00;;;;;;;;;;4989006;28;20129;-65
2021/09/24 09:50:04;;;;;;;7.38;3.63;;;;;;;;;;4990958;28;20050;-65
2021/09/24 09:52:34;;;;;;;7.05;3.42;;;;;;;;;;4992175;28;20046;-65
2021/09/24 09:55:04;;;;;;;5.88;3.00;;;;;;;;;;4991100;28;20054;-68
2021/09/24 09:57:36;;;;;;;5.95;2.83;;;;;;;;;;4991461;28;20060;-64
2021/09/24 10:00:06;;;;;;;4.40;3.10;;;;;;;;;;4982828;28;20049;-67
2021/09/24 10:02:35;;;;;;;6.93;3.17;;;;;;;;;;4986833;28;20157;-64
2021/09/24 10:05:04;;;;;;;7.72;3.25;;;;;;;;;;4989847;28;20054;-65
2021/09/24 10:07:39;;;;;;;5.45;2.70;;;;;;;;;;4991008;28;20093;-64
2021/09/24 10:10:08;;;;;;;5.90;3.30;;;;;;;;;;4972174;28;20153;-65
2021/09/24 10:12:37;;;;;;;5.10;2.70;;;;;;;;;;4977951;28;20189;-69
2021/09/24 10:15:07;;;;;;;4.85;2.60;;;;;;;;;;4982046;28;20046;-67
2021/09/24 10:17:36;;;;;;;4.28;2.70;;;;;;;;;;4986572;28;20093;-67
2021/09/24 10:20:05;;;;;;;4.38;2.83;;;;;;;;;;4988762;28;20414;-67
2021/09/24 10:22:34;;;;;;;4.35;2.65;;;;;;;;;;4991357;28;20537;-65
2021/09/24 10:25:05;;;;;;;3.80;2.60;;;;;;;;;;4986560;28;20050;-65
2021/09/24 10:27:34;;;;;;;4.80;2.95;;;;;;;;;;4991428;28;20050;-65
2021/09/24 10:30:07;;;;;;;3.95;2.65;;;;;;;;;;4990703;28;20128;-65
2021/09/24 10:32:36;;;;;;;3.90;2.50;;;;;;;;;;4985493;28;20081;-67
2021/09/24 10:35:06;;;;;;;2.83;2.25;;;;;;;;;;4985907;28;20046;-65
2021/09/24 10:37:35;;;;;;;5.85;3.08;;;;;;;;;;4990115;28;20141;-65
2021/09/24 10:40:05;;;;;;;4.25;2.90;;;;;;;;;;4986337;28;20049;-65
2021/09/24 10:42:47;;;;;;;4.72;2.40;;;;;;;;;;4990882;28;20133;-65
2021/09/24 10:45:17;;;;;;;5.97;2.70;;;;;;;;;;4989076;28;20077;-64
2021/09/24 10:48:04;;;;;;;6.72;3.13;;;;;;;;;;4989684;28;20440;-65
2021/09/24 10:50:50;;;;;;;5.13;2.83;;;;;;;;;;4986459;28;20129;-65
2021/09/24 10:53:21;;;;;;;4.95;3.10;;;;;;;;;;4980841;28;20054;-65
2021/09/24 10:56:11;;;;;;;3.92;2.58;;;;;;;;;;4989573;28;20481;-65
2021/09/24 10:58:41;;;;;;;5.40;3.30;;;;;;;;;;4981545;28;20090;-65
2021/09/24 11:01:14;;;;;;;5.43;2.78;;;;;;;;;;4989447;28;20062;-65
2021/09/24 11:03:53;;;;;;;5.18;2.90;;;;;;;;;;4984022;28;20057;-65
2021/09/24 11:06:34;;;;;;;5.28;2.80;;;;;;;;;;4988994;28;20100;-66
2021/09/24 11:09:03;;;;;;;7.43;2.78;;;;;;;;;;4988483;28;20462;-67
2021/09/24 11:11:34;;;;;;;4.28;2.78;;;;;;;;;;4990489;28;20084;-66
2021/09/24 11:14:22;;;;;;;8.13;3.20;;;;;;;;;;4987165;28;20046;-66
2021/09/24 11:16:52;;;;;;;5.10;2.70;;;;;;;;;;4989462;28;20479;-65
2021/09/24 11:19:32;;;;;;;6.20;2.83;;;;;;;;;;4990644;28;20105;-65
2021/09/24 11:22:18;;;;;;;5.30;2.88;;;;;;;;;;4985916;28;20046;-71
2021/09/24 11:24:48;;;;;;;3.42;2.40;;;;;;;;;;4967480;28;20070;-65
2021/09/24 11:27:31;;;;;;;8.45;2.97;;;;;;;;;;4986414;28;20141;-65
2021/09/24 11:30:14;;;;;;;4.43;3.08;;;;;;;;;;4980100;28;20462;-65
2021/09/24 11:32:44;;;;;;;4.75;2.90;;;;;;;;;;4988378;28;20150;-67
2021/09/24 11:35:13;;;;;;;4.50;2.97;;;;;;;;;;4988512;28;20517;-65
2021/09/24 11:37:44;;;;;;;3.67;2.70;;;;;;;;;;4989818;28;20128;-65
2021/09/24 11:40:13;;;;;;;4.35;2.42;;;;;;;;;;4986781;28;20056;-64
2021/09/24 11:42:44;;;;;;;7.55;2.88;;;;;;;;;;4987566;28;20086;-68
2021/09/24 11:45:13;;;;;;;4.30;2.80;;;;;;;;;;4987312;28;20046;-67
2021/09/24 11:47:43;;;;;;;6.07;2.78;;;;;;;;;;4988994;28;20041;-65
2021/09/24 11:50:12;;;;;;;6.72;3.05;;;;;;;;;;4987162;28;20089;-68
2021/09/24 11:52:43;;;;;;;3.88;2.72;;;;;;;;;;4989048;28;20475;-67
2021/09/24 11:55:16;;;;;;;4.20;2.38;;;;;;;;;;4988172;28;20518;-65
2021/09/24 11:57:56;;;;;;;4.60;2.33;;;;;;;;;;4989354;28;20434;-66
2021/09/24 12:00:25;;;;;;;4.88;2.65;;;;;;;;;;4989339;28;20093;-64
2021/09/24 12:03:06;;;;;;;6.65;2.60;;;;;;;;;;4993958;28;20054;-64
2021/09/24 12:05:35;;;;;;;3.70;2.50;;;;;;;;;;4974914;28;20053;-66
2021/09/24 12:08:04;;;;;;;4.95;2.92;;;;;;;;;;4990371;28;20054;-64
2021/09/24 12:10:32;;;;;;;4.93;3.10;;;;;;;;;;4992816;28;20085;-69
2021/09/24 12:13:08;;;;;;;5.68;2.70;;;;;;;;;;4995351;28;20129;-65
2021/09/24 12:15:49;;;;;;;4.68;3.22;;;;;;;;;;4992918;28;20046;-70
2021/09/24 12:18:18;;;;;;;5.10;3.00;;;;;;;;;;4993702;28;20480;-66
2021/09/24 12:20:47;;;;;;;5.07;3.00;;;;;;;;;;4985808;28;20046;-70
2021/09/24 12:23:15;;;;;;;3.50;2.65;;;;;;;;;;4992748;28;20061;-65
2021/09/24 12:25:43;;;;;;;6.85;2.55;;;;;;;;;;4993764;28;20046;-65
2021/09/24 12:28:14;;;;;;;8.23;2.88;;;;;;;;;;4993510;28;20125;-66
2021/09/24 12:30:43;;;;;;;5.90;2.50;;;;;;;;;;4993088;28;20082;-66
2021/09/24 12:33:11;;;;;;;4.53;2.58;;;;;;;;;;4993019;28;20134;-68
2021/09/24 12:35:40;;;;;;;2.83;2.33;;;;;;;;;;4990641;28;20443;-68
2021/09/24 12:38:23;;;;;;;3.65;2.40;;;;;;;;;;4993464;28;20085;-67
2021/09/24 12:41:06;;;;;;;4.05;2.85;;;;;;;;;;4990855;28;20046;-68
2021/09/24 12:43:36;;;;;;;6.38;2.55;;;;;;;;;;4987481;28;20050;-70
2021/09/24 12:46:05;;;;;;;5.40;2.40;;;;;;;;;;4992924;28;20463;-66
2021/09/24 12:48:35;;;;;;;3.72;2.60;;;;;;;;;;4988681;28;20054;-66
2021/09/24 12:51:04;;;;;;;4.82;2.60;;;;;;;;;;4990040;28;20406;-66
2021/09/24 12:53:34;;;;;;;4.80;3.03;;;;;;;;;;4991922;28;20450;-68
2021/09/24 12:56:03;;;;;;;3.50;2.40;;;;;;;;;;4991350;28;20066;-72
2021/09/24 12:58:32;;;;;;;6.80;3.35;;;;;;;;;;4984366;28;20129;-66
2021/09/24 13:01:03;;;;;;;4.60;2.85;;;;;;;;;;4983049;28;20059;-66
2021/09/24 13:03:34;;;;;;;9.07;3.20;;;;;;;;;;4988549;28;20125;-74
2021/09/24 13:06:04;;;;;;;5.03;3.10;;;;;;;;;;4992991;28;20050;-67
2021/09/24 13:08:32;;;;;;;10.48;3.05;;;;;;;;;;4993404;28;20046;-66
2021/09/24 13:11:01;;;;;;;4.10;2.80;;;;;;;;;;4989168;28;20522;-69
2021/09/24 13:13:30;;;;;;;4.55;2.33;;;;;;;;;;4984091;28;20069;-66
2021/09/24 13:15:58;;;;;;;4.38;2.28;;;;;;;;;;4988101;28;20050;-72
2021/09/24 13:18:29;;;;;;;5.65;2.85;;;;;;;;;;4993276;28;20042;-67
2021/09/24 13:20:57;;;;;;;4.35;2.70;;;;;;;;;;4990767;28;20181;-66
2021/09/24 13:23:26;;;;;;;5.30;2.50;;;;;;;;;;4985063;28;20078;-65
2021/09/24 13:25:55;;;;;;;3.90;2.80;;;;;;;;;;4979340;28;20532;-66
2021/09/24 13:28:23;;;;;;;4.72;3.30;;;;;;;;;;4987800;28;20483;-66
2021/09/24 13:30:51;;;;;;;4.03;2.35;;;;;;;;;;4979380;28;20094;-71
2021/09/24 13:33:21;;;;;;;4.20;2.97;;;;;;;;;;4985052;28;20065;-67
2021/09/24 13:35:51;;;;;;;3.50;2.53;;;;;;;;;;4989502;28;20058;-68
2021/09/24 13:38:19;;;;;;;4.00;2.90;;;;;;;;;;4981311;28;20133;-68
2021/09/24 13:40:48;;;;;;;3.30;2.70;;;;;;;;;;4983662;28;20051;-70
2021/09/24 13:43:16;;;;;;;4.45;2.90;;;;;;;;;;4981320;28;20414;-68
2021/09/24 13:45:45;;;;;;;4.85;2.97;;;;;;;;;;4979204;28;20127;-76
2021/09/24 13:48:14;;;;;;;4.03;2.67;;;;;;;;;;4981803;28;20049;-66
2021/09/24 13:50:42;;;;;;;4.63;3.15;;;;;;;;;;4979350;28;20133;-70
2021/09/24 13:53:14;;;;;;;4.82;2.97;;;;;;;;;;4977511;28;20050;-66
2021/09/24 13:55:43;;;;;;;3.03;2.17;;;;;;;;;;4982524;28;20520;-73
2021/09/24 13:58:12;;;;;;;3.90;2.20;;;;;;;;;;4980841;28;20058;-66
2021/09/24 14:00:41;;;;;;;3.92;2.55;;;;;;;;;;4978473;28;20054;-67
2021/09/24 14:03:09;;;;;;;3.97;2.47;;;;;;;;;;4978007;28;21298;-66
2021/09/24 14:05:38;;;;;;;6.00;2.85;;;;;;;;;;4977195;28;20121;-67
2021/09/24 14:08:07;;;;;;;5.40;2.50;;;;;;;;;;4979145;28;20050;-70
2021/09/24 14:10:37;;;;;;;4.55;2.70;;;;;;;;;;4979328;28;20133;-66
2021/09/24 14:13:07;;;;;;;3.20;2.30;;;;;;;;;;4974448;28;20085;-72
2021/09/24 14:15:35;;;;;;;5.72;2.55;;;;;;;;;;4979173;28;20046;-68
2021/09/24 14:18:04;;;;;;;4.85;2.53;;;;;;;;;;4978896;28;20462;-67
2021/09/24 14:20:33;;;;;;;3.90;2.60;;;;;;;;;;4978880;28;20058;-71
2021/09/24 14:23:01;;;;;;;5.55;2.58;;;;;;;;;;4981690;28;20043;-69
2021/09/24 14:25:29;;;;;;;3.42;2.10;;;;;;;;;;4982608;28;20046;-66
2021/09/24 14:27:59;;;;;;;3.70;2.53;;;;;;;;;;4979514;28;20051;-66
2021/09/24 14:30:35;;;;;;;6.20;2.75;;;;;;;;;;4982683;28;20069;-66
2021/09/24 14:33:03;;;;;;;3.67;2.70;;;;;;;;;;4976670;28;20152;-69
2021/09/24 14:35:32;;;;;;;4.13;2.45;;;;;;;;;;4977075;28;20082;-65
2021/09/24 14:38:00;;;;;;;2.97;2.45;;;;;;;;;;4978444;28;20097;-74
2021/09/24 14:40:29;;;;;;;3.40;2.65;;;;;;;;;;4987920;28;20464;-66
2021/09/24 14:42:57;;;;;;;5.18;3.10;;;;;;;;;;4982884;28;20522;-66
2021/09/24 14:45:27;;;;;;;5.50;2.70;;;;;;;;;;4983087;28;20046;-71
2021/09/24 14:47:55;;;;;;;4.55;2.45;;;;;;;;;;4977011;28;20053;-66
2021/09/24 14:50:23;;;;;;;4.40;3.05;;;;;;;;;;4971698;28;20094;-67
2021/09/24 14:52:52;;;;;;;4.35;2.58;;;;;;;;;;4979164;28;20078;-67
2021/09/24 14:55:20;;;;;;;6.55;2.92;;;;;;;;;;4983679;28;20051;-67